x

Nantucket Sound (44020) Wave Buoy

3:50 - Sat 30th Jul 2016 All times are EDT. -4 hours from GMT.

  • Sig Wave height 1.0ft
  • Swell Direction
  • Peak Period 7s
  • Average Period 4s
  • Wind
    9mph
  • Sea Temp 76°f
  • Air Temp 72°f
  • Sea Pressure 1016.5mb
  • Nantucket Sound
  • Nantucket Sound

More Historic Weather Station data

Upgrade to MSW Pro to gain access to the past 30 days of data for over 8000 Wavebouys and Weather Stations around the globe.

Join Pro

Comparision Forecast

View Surf forecast
   
sam. 07/30 3:50 1ft 7s 4s 9
mph
1016.5mb 76f 72f
2:50 0.7ft  -  3s 2 4 mph 1017.1mb 75f 71f
1:50 1ft 5s 4s 4 7 mph 1017.2mb 75f 69f
12:50 0.7ft  -  4s 7 9 mph 1017.3mb 75f 68f
11:50 0.7ft  -  4s 9
mph
1017mb 75f 68f
10:50 0.7ft  -  4s 9 11 mph 1016.4mb 76f 70f
9:50 1ft 7s 3s 7 9 mph 1015.8mb 75f 73f
8:50 1ft 2s 3s 9 11 mph 1015.4mb 75f 73f
7:50 1ft 2s 3s 7 9 mph 1015mb 75f 73f
6:50 1ft 3s 3s 9
mph
1014.5mb 75f 72f
5:50 1ft 3s 3s 13 16 mph 1013.9mb 75f 71f
4:50 0.7ft  -  3s 13 18 mph 1013.2mb 74f 71f
3:50 0.7ft  -  3s 11 13 mph 1013mb 74f 72f
1:50 0.7ft  -  3s 9 13 mph 1012.4mb 73f 73f
12:50 0.7ft  -  3s 9 11 mph 1012.1mb 74f 73f
ven. 07/29 11:50 0.3ft  -  3s 9 11 mph 1011.7mb 74f 74f
10:50 0.3ft  -  4s 7 9 mph 1011.6mb 75f 73f
9:50 0.7ft  -  4s 2 4 mph 1011.6mb 75f 72f
8:50 0.7ft  -  3s 4 7 mph 1011.3mb 74f 72f
7:50 1ft 2s 3s 7 9 mph 1010.7mb 74f 72f
6:50 1ft 3s 3s 11
mph
1010mb 75f 72f
5:50 0.7ft  -  3s 11 13 mph 1009.5mb 75f 72f
4:50 0.7ft  -  3s 11 16 mph 1009.1mb 75f 71f
3:50 0.7ft  -  3s 11 13 mph 1009.5mb 75f 71f
2:50 0.7ft  -  3s 4 7 mph 1009.8mb 74f 71f
1:50 0.7ft  -  3s 7 9 mph 1009.8mb 74f 70f
12:50 0.3ft  -  4s 7
mph
1010.5mb 74f 71f
11:50 0.3ft  -  4s 9 11 mph 1010.9mb 74f 73f
10:50 0.7ft  -  4s 9
mph
1011.1mb 75f 74f
9:50 0.7ft  -  4s 7 9 mph 1010.7mb 75f 73f
8:50 0.3ft  -  4s 2
mph
1010.6mb 75f 74f
7:50 0.7ft  -  4s 2 4 mph 1010.2mb 75f 74f
6:50 0.3ft  -  4s 7 9 mph 1010.6mb 75f 74f
5:50 0.3ft  -  3s 4 7 mph 1010.2mb 75f 74f
4:50 0.3ft  -  3s 9
mph
1010.6mb 75f 74f
3:50 0.3ft  -  3s 7 9 mph 1011mb 75f 74f
2:50 0.3ft  -  3s 7
mph
1011.3mb 74f 74f
1:50 0.3ft  -  3s 9
mph
1011.8mb 74f 73f
12:50 0.7ft  -  3s 7 9 mph 1011.8mb 73f 74f
jeu. 07/28 11:50 0.7ft  -  3s 9
mph
1011.9mb 74f 73f
10:50 0.7ft  -  3s 9
mph
1012.2mb 75f 74f
9:50 0.7ft  -  3s 11
mph
1012mb 75f 75f
8:50 1ft 3s 3s 11 13 mph 1011.8mb 75f 75f
7:50 1ft 3s 3s 13 16 mph 1011.9mb 75f 74f
6:50 1ft 3s 3s 13 16 mph 1011.9mb 75f 74f
5:50 1ft 3s 3s 13 16 mph 1011.4mb 75f 74f
4:50 0.7ft  -  3s 11 13 mph 1011.4mb 75f 75f
3:50 0.7ft  -  3s 11 13 mph 1011.7mb 76f 75f
2:50 0.7ft  -  3s 13 16 mph 1012.2mb 76f 75f
1:50 1ft 2s 3s 13 16 mph 1012.3mb 75f 75f
12:50 1ft 2s 3s 13 16 mph 1012.6mb 74f 75f
11:50 1ft 3s 3s 13
mph
1013mb 74f 75f
10:50 1ft 3s 3s 13 16 mph 1013.1mb 74f 75f
9:50 1ft 3s 3s 13 16 mph 1013mb 75f 74f
8:50 1ft 3s 3s 13 16 mph 1013mb 75f 74f
7:50 1ft 2s 3s 13
mph
1012.8mb 75f 74f
6:50 1ft 2s 3s 13 16 mph 1012.7mb 74f 74f
5:50 0.7ft  -  3s 11 13 mph 1012.5mb 74f 74f
4:50 0.7ft  -  3s 13
mph
1012.1mb 75f 74f
3:50 0.7ft  -  3s 13 16 mph 1012.1mb 75f 74f
2:50 0.7ft  -  3s 13 16 mph 1012.4mb 75f 74f
1:50 0.7ft  -  3s 11 13 mph 1012.5mb 74f 75f
12:50 0.7ft  -  3s 13
mph
1012.5mb 74f 75f
mer. 07/27 11:50 0.7ft  -  3s 11 13 mph 1012.9mb 73f 75f
10:50 0.7ft  -  3s 11 13 mph 1012.7mb 73f 75f
9:50 0.7ft  -  3s 11 13 mph 1012.5mb 74f 74f
8:50 0.7ft  -  3s 11 13 mph 1012.4mb 75f 75f
7:50 1ft 2s 3s 11
mph
1012.2mb 75f 75f
6:50 1ft 5s 3s 9 11 mph 1012.2mb 75f 75f
5:50 0.7ft  -  4s 9 11 mph 1012.3mb 75f 76f
4:50 0.7ft  -  4s 9
mph
1012.5mb 76f 76f
3:50 0.7ft  -  4s 2 4 mph 1012.9mb 76f 76f
2:50 0.7ft  -  4s 4 7 mph 1012.8mb 76f 76f
1:50 0.7ft  -  3s 4
mph
1013.1mb 78f 78f
12:50 0.7ft  -  3s 4
mph
1013.1mb 77f 77f
11:50 0.7ft  -  4s 2
mph
1013.1mb 75f 76f
10:50 0.7ft  -  3s 4
mph
1013.2mb 73f 75f
9:50 1ft 3s 3s 7 9 mph 1012.9mb 74f 75f
8:50 1ft 4s 3s 9
mph
1013mb 74f 75f
7:50 1ft 3s 3s 11 13 mph 1012.5mb 75f 75f
6:50 1ft 3s 3s 11 13 mph 1012.3mb 74f 76f
5:50 1.3ft 3s 3s 13 16 mph 1012.3mb 74f 76f
4:50 1ft 3s 3s 13 16 mph 1011.4mb 74f 76f
3:50 1.3ft 3s 3s 13 16 mph 1011.3mb 74f 77f
2:50 1ft 3s 3s 11 13 mph 1011.4mb 75f 77f
1:50 0.7ft  -  3s 11 13 mph 1011.1mb 74f 77f
12:50 0.7ft  -  3s 4
mph
1011mb 74f 75f
mar. 07/26 11:50 0.7ft  -  3s 4
mph
1010.9mb 73f 75f
10:50 0.7ft  -  3s 4 7 mph 1010.6mb 73f 76f
9:50 1ft 4s 3s 4
mph
1010.4mb 73f 75f